Metar Flugplatz Niederstetten

ETHN 170620Z 23011KT 9999 -RA OVC020 04/02 Q1004 WHT WHT TEMPO YLO



Temperatur Niederstetten
4 Grad Celsius

QNH Niederstetten
1004
==============================================================

TAF Niederstetten:

TAF ETHN 291027Z 2911/3002 24010KT 9999 NSW FEW240 TEMPO 2911/2916 26012G22KT 9999 NSW SCT035 BKN240



Alle Angaben ohne Gewähr